createdAt,value
2023-02-21T00:02:17.853Z,13.05
2023-02-21T00:05:04.257Z,12.39
2023-02-21T00:07:52.215Z,11.91
2023-02-21T00:10:39.117Z,12.03
2023-02-21T00:13:25.473Z,13.37
2023-02-21T00:16:12.136Z,13.57
2023-02-21T00:18:58.768Z,12.85
2023-02-21T00:21:47.728Z,12.24
2023-02-21T00:24:36.005Z,11.92
2023-02-21T00:27:23.077Z,12.80
2023-02-21T00:30:09.949Z,13.35
2023-02-21T00:32:56.347Z,12.85
2023-02-21T00:35:42.660Z,12.33
2023-02-21T00:38:29.612Z,11.93
2023-02-21T00:41:16.436Z,12.37
2023-02-21T00:44:03.669Z,13.46
2023-02-21T00:46:49.828Z,13.36
2023-02-21T00:49:36.495Z,12.72
2023-02-21T00:52:23.551Z,12.22
2023-02-21T00:55:10.353Z,12.06
2023-02-21T00:57:56.880Z,13.05
2023-02-21T01:00:44.613Z,13.66
2023-02-21T01:03:30.922Z,13.05
2023-02-21T01:06:17.105Z,12.40
2023-02-21T01:09:04.960Z,12.24
2023-02-21T01:11:51.751Z,13.35
2023-02-21T01:14:38.143Z,13.90
2023-02-21T01:17:24.844Z,13.28
2023-02-21T01:20:11.041Z,12.57
2023-02-21T01:22:57.183Z,12.10
2023-02-21T01:25:43.424Z,12.82
2023-02-21T01:28:29.920Z,13.99
2023-02-21T01:31:16.432Z,14.05
2023-02-21T01:34:04.547Z,13.21
2023-02-21T01:36:50.797Z,12.58
2023-02-21T01:39:37.202Z,12.27
2023-02-21T01:42:23.345Z,13.25
2023-02-21T01:45:41.700Z,13.94
2023-02-21T01:48:32.618Z,13.16
2023-02-21T01:51:20.217Z,12.52
2023-02-21T01:54:07.162Z,12.50
2023-02-21T01:56:53.863Z,13.58
2023-02-21T01:59:41.699Z,13.66
2023-02-21T02:02:34.728Z,12.88
2023-02-21T02:05:23.489Z,12.28
2023-02-21T02:08:11.016Z,12.35
2023-02-21T02:11:00.989Z,13.64
2023-02-21T02:13:38.302Z,14.05
2023-02-21T02:16:24.673Z,13.24
2023-02-21T02:19:33.772Z,12.49
2023-02-21T02:22:16.535Z,12.72
2023-02-21T02:24:53.133Z,13.73
2023-02-21T02:27:28.786Z,13.94
2023-02-21T02:30:29.002Z,13.14
2023-02-21T02:33:23.762Z,12.38
2023-02-21T02:35:59.919Z,12.28
2023-02-21T02:38:38.652Z,13.20
2023-02-21T02:41:14.103Z,13.98
2023-02-21T02:43:47.166Z,13.76
2023-02-21T02:46:22.462Z,13.03
2023-02-21T02:49:00.783Z,12.41
2023-02-21T02:51:28.740Z,13.02
2023-02-21T02:53:59.001Z,13.75
2023-02-21T02:56:28.875Z,13.79
2023-02-21T02:59:01.477Z,12.86
2023-02-21T03:01:49.048Z,12.42
2023-02-21T03:04:37.302Z,13.15
2023-02-21T03:07:31.335Z,13.86
2023-02-21T03:10:11.188Z,13.52
2023-02-21T03:12:47.392Z,12.65
2023-02-21T03:15:26.041Z,12.58
2023-02-21T03:18:01.010Z,13.51
2023-02-21T03:20:29.351Z,14.15
2023-02-21T03:22:57.971Z,13.58
2023-02-21T03:25:26.071Z,12.74
2023-02-21T03:27:56.306Z,13.08
2023-02-21T03:30:26.833Z,13.94
2023-02-21T03:37:41.458Z,12.61
2023-02-21T03:40:20.634Z,12.62
2023-02-21T03:42:52.194Z,13.58
2023-02-21T03:45:20.782Z,14.21
2023-02-21T03:48:04.620Z,13.63
2023-02-21T03:50:33.433Z,12.87
2023-02-21T03:53:01.523Z,13.10
2023-02-21T03:55:29.606Z,13.78
2023-02-21T03:57:57.708Z,14.47
2023-02-21T04:00:25.523Z,14.25
2023-02-21T04:02:54.241Z,13.40
2023-02-21T04:05:35.309Z,12.66
2023-02-21T04:08:04.571Z,12.54
2023-02-21T04:10:35.889Z,13.33
2023-02-21T04:13:07.422Z,13.88
2023-02-21T04:15:40.095Z,14.37
2023-02-21T04:18:07.934Z,13.79
2023-02-21T04:20:37.628Z,12.96
2023-02-21T04:23:06.623Z,12.55
2023-02-21T04:25:34.938Z,12.84
2023-02-21T04:28:07.422Z,13.71
2023-02-21T04:30:35.302Z,14.38
2023-02-21T04:33:03.874Z,13.83
2023-02-21T04:35:31.871Z,13.00
2023-02-21T04:38:03.412Z,12.81
2023-02-21T04:40:31.182Z,13.80
2023-02-21T04:42:59.702Z,14.63
2023-02-21T04:45:28.755Z,14.24
2023-02-21T04:47:56.767Z,13.35
2023-02-21T04:50:24.416Z,12.94
2023-02-21T04:52:52.074Z,13.76
2023-02-21T04:55:19.829Z,14.55
2023-02-21T04:57:47.769Z,14.41
2023-02-21T05:00:16.361Z,13.55
2023-02-21T05:02:44.619Z,13.13
2023-02-21T05:05:13.655Z,13.92
2023-02-21T05:07:42.750Z,14.88
2023-02-21T05:10:10.992Z,14.76
2023-02-21T05:12:40.321Z,13.79
2023-02-21T05:15:09.039Z,13.06
2023-02-21T05:17:36.649Z,12.90
2023-02-21T05:20:11.727Z,13.67
2023-02-21T05:22:40.471Z,14.37
2023-02-21T05:25:19.398Z,14.90
2023-02-21T05:27:47.634Z,14.06
2023-02-21T05:30:16.765Z,13.23
2023-02-21T05:32:44.590Z,13.10
2023-02-21T05:35:14.470Z,13.76
2023-02-21T05:37:42.719Z,14.12
2023-02-21T05:40:12.700Z,14.39
2023-02-21T05:42:40.588Z,14.45
2023-02-21T05:45:09.647Z,13.72
2023-02-21T05:47:37.391Z,13.09
2023-02-21T05:50:05.938Z,13.54
2023-02-21T05:52:33.629Z,14.33
2023-02-21T05:55:01.304Z,14.57
2023-02-21T05:57:29.008Z,13.92
2023-02-21T05:59:56.667Z,13.18
2023-02-21T06:02:24.409Z,13.45
2023-02-21T06:04:52.408Z,14.17
2023-02-21T06:07:20.075Z,14.56
2023-02-21T06:09:47.704Z,14.74
2023-02-21T06:12:15.445Z,14.70
2023-02-21T06:14:43.745Z,13.83
2023-02-21T06:17:11.393Z,13.15
2023-02-21T06:19:39.058Z,13.33
2023-02-21T06:22:06.715Z,13.89
2023-02-21T06:24:34.451Z,14.46
2023-02-21T06:27:02.184Z,14.89
2023-02-21T06:29:29.923Z,14.59
2023-02-21T06:31:59.202Z,13.71
2023-02-21T06:34:27.803Z,13.32
2023-02-21T06:36:55.872Z,13.88
2023-02-21T06:39:23.553Z,14.48
2023-02-21T06:41:51.627Z,14.96
2023-02-21T06:44:19.764Z,15.25
2023-02-21T06:46:50.541Z,14.64
2023-02-21T06:49:18.301Z,13.70
2023-02-21T06:51:46.258Z,13.56
2023-02-21T06:54:14.110Z,14.20
2023-02-21T06:56:42.072Z,14.74
2023-02-21T06:59:09.723Z,15.03
2023-02-21T07:01:37.781Z,14.52
2023-02-21T07:04:05.460Z,13.55
2023-02-21T07:06:33.615Z,13.40
2023-02-21T07:09:01.578Z,14.09
2023-02-21T07:11:31.202Z,14.62
2023-02-21T07:13:59.500Z,14.94
2023-02-21T07:16:27.469Z,14.47
2023-02-21T07:18:55.290Z,13.71
2023-02-21T07:21:23.574Z,13.26
2023-02-21T07:23:51.269Z,13.77
2023-02-21T07:26:19.107Z,14.51
2023-02-21T07:28:50.076Z,15.06
2023-02-21T07:31:19.566Z,15.12
2023-02-21T07:33:47.704Z,14.36
2023-02-21T07:36:15.575Z,13.56
2023-02-21T07:38:43.306Z,13.98
2023-02-21T07:41:11.426Z,14.65
2023-02-21T07:43:39.300Z,15.00
2023-02-21T07:46:12.009Z,14.72
2023-02-21T07:48:39.855Z,13.74
2023-02-21T07:51:08.894Z,13.21
2023-02-21T07:53:36.952Z,13.62
2023-02-21T07:56:05.193Z,14.41
2023-02-21T07:58:37.268Z,14.96
2023-02-21T08:01:06.182Z,15.06
2023-02-21T08:03:33.918Z,14.23
2023-02-21T08:06:01.708Z,13.43
2023-02-21T08:08:29.740Z,13.06
2023-02-21T08:10:58.230Z,13.30
2023-02-21T08:13:25.961Z,13.77
2023-02-21T08:15:53.772Z,14.29
2023-02-21T08:18:24.478Z,14.68
2023-02-21T08:20:53.461Z,14.92
2023-02-21T08:23:21.744Z,15.21
2023-02-21T08:25:49.875Z,15.23
2023-02-21T08:28:17.707Z,14.32
2023-02-21T08:30:45.457Z,13.64
2023-02-21T08:33:13.295Z,13.93
2023-02-21T08:35:40.966Z,14.50
2023-02-21T08:38:10.484Z,15.13
2023-02-21T08:40:38.222Z,15.50
2023-02-21T08:43:06.160Z,14.81
2023-02-21T08:45:33.927Z,13.87
2023-02-21T08:48:01.714Z,13.74
2023-02-21T08:50:29.742Z,14.34
2023-02-21T08:52:58.140Z,14.83
2023-02-21T08:55:25.973Z,15.07
2023-02-21T08:57:54.086Z,14.72
2023-02-21T14:02:37.587Z,15.03
2023-02-21T14:05:06.937Z,15.49
2023-02-21T14:07:47.484Z,15.79
2023-02-21T14:10:29.938Z,16.12
2023-02-21T14:13:03.598Z,16.48
2023-02-21T14:15:40.635Z,16.80
2023-02-21T14:18:16.828Z,17.12
2023-02-21T14:20:48.039Z,17.34
2023-02-21T14:23:17.799Z,17.75
2023-02-21T14:26:03.740Z,18.46
2023-02-21T14:28:51.020Z,18.81
2023-02-21T14:31:51.411Z,18.61
2023-02-21T14:34:42.398Z,18.19
2023-02-21T14:37:19.522Z,18.08
2023-02-21T14:39:56.602Z,18.14
2023-02-21T14:42:39.409Z,17.73
2023-02-21T14:45:10.107Z,17.25
2023-02-21T14:47:55.930Z,16.90
2023-02-21T14:50:43.075Z,16.48
2023-02-21T14:53:40.919Z,16.38
2023-02-21T14:56:35.421Z,16.13
2023-02-21T14:59:08.605Z,15.84
2023-02-21T15:02:07.360Z,15.58
2023-02-21T15:04:41.770Z,15.70
2023-02-21T15:07:21.444Z,16.07
2023-02-21T15:10:29.033Z,16.66
2023-02-21T15:13:02.799Z,17.52
2023-02-21T15:15:32.434Z,18.51
2023-02-21T15:18:06.365Z,19.62
2023-02-21T15:20:37.118Z,20.65
2023-02-21T15:23:14.454Z,21.33
2023-02-21T15:25:43.617Z,21.91
2023-02-21T15:28:27.109Z,22.43
2023-02-21T15:31:16.482Z,22.48
2023-02-21T15:33:44.491Z,22.24
2023-02-21T15:36:12.118Z,21.63
2023-02-21T15:38:52.162Z,20.74
2023-02-21T15:41:28.087Z,19.71
2023-02-21T15:44:02.658Z,18.72
2023-02-21T15:46:47.248Z,17.77
2023-02-21T15:49:26.896Z,16.87
2023-02-21T15:51:54.627Z,16.15
2023-02-21T15:54:32.504Z,15.61
2023-02-21T15:57:10.463Z,15.14
2023-02-21T15:59:41.614Z,14.78
2023-02-21T16:02:09.211Z,14.52
2023-02-21T16:04:42.286Z,14.26
2023-02-21T16:07:37.092Z,13.98
2023-02-21T16:10:08.427Z,13.71
2023-02-21T16:12:40.279Z,13.50
2023-02-21T16:15:24.728Z,13.33
2023-02-21T16:17:58.368Z,13.15
2023-02-21T16:20:35.128Z,13.01
2023-02-21T16:23:17.812Z,12.87
2023-02-21T16:25:55.950Z,12.76
2023-02-21T16:28:23.937Z,12.66
2023-02-21T16:30:52.040Z,12.58
2023-02-21T16:33:19.849Z,12.49
2023-02-21T16:35:47.504Z,12.41
2023-02-21T16:38:17.982Z,12.34
2023-02-21T16:40:45.954Z,12.27
2023-02-21T16:43:23.913Z,12.20
2023-02-21T16:45:54.528Z,12.13
2023-02-21T16:48:26.986Z,12.05
2023-02-21T16:50:55.567Z,11.98
2023-02-21T16:53:23.264Z,11.94
2023-02-21T16:55:51.294Z,11.90
2023-02-21T16:58:30.437Z,11.87
2023-02-21T17:01:24.346Z,11.84
2023-02-21T17:03:53.888Z,11.80
2023-02-21T17:06:24.106Z,11.73
2023-02-21T17:08:52.105Z,11.68
2023-02-21T17:11:19.922Z,11.61
2023-02-21T17:13:48.002Z,11.57
2023-02-21T17:16:15.755Z,11.53
2023-02-21T17:18:44.799Z,11.52
2023-02-21T17:21:12.624Z,11.49
2023-02-21T17:23:41.379Z,11.47
2023-02-21T17:26:09.147Z,11.44
2023-02-21T17:28:39.093Z,11.42
2023-02-21T17:31:06.917Z,11.39
2023-02-21T17:33:35.670Z,11.35
2023-02-21T17:36:03.789Z,11.29
2023-02-21T17:38:33.420Z,11.50
2023-02-21T17:41:01.706Z,12.80
2023-02-21T17:43:29.438Z,14.07
2023-02-21T17:45:57.249Z,14.69
2023-02-21T17:48:24.999Z,14.12
2023-02-21T17:50:52.732Z,13.46
2023-02-21T17:53:20.420Z,12.92
2023-02-21T17:55:48.472Z,12.54
2023-02-21T17:58:16.163Z,12.26
2023-02-21T18:00:45.362Z,12.03
2023-02-21T18:03:13.774Z,11.85
2023-02-21T18:05:41.577Z,11.70
2023-02-21T18:08:09.634Z,11.58
2023-02-21T18:10:37.379Z,11.47
2023-02-21T18:13:05.086Z,11.36
2023-02-21T18:15:33.410Z,11.26
2023-02-21T18:18:06.874Z,11.20
2023-02-21T18:20:35.437Z,11.13
2023-02-21T18:23:03.856Z,11.06
2023-02-21T18:25:32.600Z,11.02
2023-02-21T18:28:01.019Z,11.00
2023-02-21T18:30:28.983Z,10.96
2023-02-21T18:32:56.795Z,10.90
2023-02-21T18:35:24.603Z,10.84
2023-02-21T18:37:52.317Z,10.80
2023-02-21T18:40:20.326Z,10.78
2023-02-21T18:42:48.630Z,10.78
2023-02-21T18:45:16.465Z,10.78
2023-02-21T18:47:44.188Z,10.77
2023-02-21T18:50:12.101Z,10.77
2023-02-21T18:52:40.182Z,10.75
2023-02-21T18:55:08.118Z,10.74
2023-02-21T18:57:36.329Z,10.70
2023-02-21T19:00:06.589Z,10.67
2023-02-21T19:02:34.621Z,10.65
2023-02-21T19:05:02.762Z,10.62
2023-02-21T19:07:32.121Z,10.59
2023-02-21T19:09:59.860Z,10.59
2023-02-21T19:12:27.680Z,10.56
2023-02-21T19:14:55.558Z,10.52
2023-02-21T19:17:24.158Z,10.50
2023-02-21T19:19:52.196Z,10.47
2023-02-21T19:22:20.442Z,10.44
2023-02-21T19:24:48.284Z,10.43
2023-02-21T19:27:16.351Z,10.42
2023-02-21T19:29:44.084Z,10.41
2023-02-21T19:32:11.899Z,10.38
2023-02-21T19:34:39.943Z,10.36
2023-02-21T19:37:10.355Z,10.35
2023-02-21T19:39:38.338Z,10.33
2023-02-21T19:42:06.355Z,10.32
2023-02-21T19:44:35.031Z,10.30
2023-02-21T19:47:02.963Z,10.29
2023-02-21T19:49:30.771Z,10.25
2023-02-21T19:51:59.115Z,10.20
2023-02-21T19:54:30.870Z,10.17
2023-02-21T19:56:58.616Z,10.15
2023-02-21T19:59:29.257Z,10.14
2023-02-21T20:01:57.236Z,10.12
2023-02-21T20:04:25.340Z,10.11
2023-02-21T20:06:53.180Z,10.12
2023-02-21T20:09:20.920Z,10.13
2023-02-21T20:11:48.588Z,10.14
2023-02-21T20:14:17.607Z,10.13
2023-02-21T20:16:46.625Z,10.11
2023-02-21T20:19:14.524Z,10.11
2023-02-21T20:21:42.487Z,10.11
2023-02-21T20:24:10.974Z,10.12
2023-02-21T20:26:40.446Z,10.12
2023-02-21T20:29:08.174Z,10.11
2023-02-21T20:31:37.709Z,10.11
2023-02-21T20:34:07.164Z,10.11
2023-02-21T20:36:38.111Z,10.11
2023-02-21T20:39:18.483Z,10.10
2023-02-21T20:41:47.000Z,10.10
2023-02-21T20:44:15.352Z,10.10
2023-02-21T20:46:43.169Z,10.08
2023-02-21T20:49:14.129Z,10.05
2023-02-21T20:51:43.250Z,10.04
2023-02-21T20:54:19.699Z,10.02
2023-02-21T20:56:49.496Z,10.01
2023-02-21T20:59:23.734Z,10.01
2023-02-21T21:01:51.565Z,10.02
2023-02-21T21:04:35.171Z,10.01
2023-02-21T21:07:15.323Z,10.00
2023-02-21T21:09:44.468Z,10.00
2023-02-21T21:12:15.369Z,9.99
2023-02-21T21:14:45.937Z,9.97
2023-02-21T21:17:16.838Z,9.97
2023-02-21T21:19:46.514Z,9.96
2023-02-21T21:22:22.653Z,9.95
2023-02-21T21:24:51.885Z,9.94
2023-02-21T21:27:21.586Z,9.93
2023-02-21T21:29:49.734Z,9.94
2023-02-21T21:32:19.874Z,9.93
2023-02-21T21:34:56.540Z,9.93
2023-02-21T21:37:27.141Z,9.95
2023-02-21T21:39:55.747Z,9.93
2023-02-21T21:42:28.634Z,9.92
2023-02-21T21:44:57.396Z,9.92
2023-02-21T21:47:34.019Z,9.91
2023-02-21T21:50:04.961Z,9.91
2023-02-21T21:52:32.910Z,9.88
2023-02-21T21:55:00.654Z,9.86
2023-02-21T21:57:28.458Z,9.85
2023-02-21T21:59:57.350Z,9.83
2023-02-21T22:02:25.186Z,9.81
2023-02-21T22:04:56.243Z,9.79
2023-02-21T22:07:24.649Z,9.77
2023-02-21T22:09:52.361Z,9.77
2023-02-21T22:12:21.021Z,9.77
2023-02-21T22:14:49.944Z,9.75
2023-02-21T22:17:18.763Z,9.72
2023-02-21T22:19:46.441Z,9.70
2023-02-21T22:22:16.002Z,9.70
2023-02-21T22:24:43.956Z,9.70
2023-02-21T22:27:11.696Z,9.70
2023-02-21T22:29:39.487Z,9.67
2023-02-21T22:32:10.269Z,9.65
2023-02-21T22:34:38.058Z,9.62
2023-02-21T22:37:05.734Z,9.61
2023-02-21T22:39:33.461Z,9.59
2023-02-21T22:42:05.208Z,9.59
2023-02-21T22:44:32.894Z,9.59
2023-02-21T22:47:00.651Z,9.60
2023-02-21T22:49:29.061Z,9.60
2023-02-21T22:51:58.110Z,9.82
2023-02-21T22:54:26.588Z,11.19
2023-02-21T22:57:03.385Z,12.61
2023-02-21T22:59:31.230Z,13.35
2023-02-21T23:01:58.913Z,12.86
2023-02-21T23:04:26.963Z,12.25
2023-02-21T23:06:59.071Z,11.79
2023-02-21T23:09:29.037Z,11.46
2023-02-21T23:11:59.551Z,11.20
2023-02-21T23:14:31.470Z,10.99
2023-02-21T23:16:59.453Z,10.80
2023-02-21T23:19:29.134Z,10.65
2023-02-21T23:21:57.824Z,10.50
2023-02-21T23:24:26.085Z,10.36
2023-02-21T23:26:54.824Z,10.23
2023-02-21T23:29:25.210Z,10.09
2023-02-21T23:31:58.074Z,9.97
2023-02-21T23:34:40.137Z,9.86
2023-02-21T23:37:12.130Z,9.75
2023-02-21T23:39:41.605Z,9.65
2023-02-21T23:42:11.132Z,9.56
2023-02-21T23:44:39.365Z,9.47
2023-02-21T23:47:07.297Z,9.67
2023-02-21T23:49:35.075Z,10.98
2023-02-21T23:52:02.795Z,12.37
2023-02-21T23:54:30.572Z,13.13
2023-02-21T23:57:00.717Z,12.67
2023-02-21T23:59:28.886Z,12.01
